sensor_id;sensor_type;location;lat;lon;timestamp;P1;durP1;ratioP1;P2;durP2;ratioP2
13048;SDS011;6591;51.446;5.404;2023-07-13T04:11:33;7.78;;;2.97;;
13048;SDS011;6591;51.446;5.404;2023-07-13T04:14:03;7.00;;;2.50;;
13048;SDS011;6591;51.446;5.404;2023-07-13T04:16:30;8.05;;;2.80;;
13048;SDS011;6591;51.446;5.404;2023-07-13T04:18:58;6.97;;;2.90;;
13048;SDS011;6591;51.446;5.404;2023-07-13T04:21:29;7.88;;;3.75;;
13048;SDS011;6591;51.446;5.404;2023-07-13T04:23:57;8.30;;;3.53;;
13048;SDS011;6591;51.446;5.404;2023-07-13T04:26:25;9.00;;;3.72;;
13048;SDS011;6591;51.446;5.404;2023-07-13T04:28:52;5.47;;;3.63;;
13048;SDS011;6591;51.446;5.404;2023-07-13T04:31:20;10.38;;;4.15;;
13048;SDS011;6591;51.446;5.404;2023-07-13T04:33:48;8.07;;;3.92;;
13048;SDS011;6591;51.446;5.404;2023-07-13T04:36:17;10.32;;;4.38;;
13048;SDS011;6591;51.446;5.404;2023-07-13T04:38:44;9.35;;;4.65;;
13048;SDS011;6591;51.446;5.404;2023-07-13T04:41:12;9.23;;;3.95;;
13048;SDS011;6591;51.446;5.404;2023-07-13T04:43:41;6.80;;;4.10;;
13048;SDS011;6591;51.446;5.404;2023-07-13T04:46:13;11.27;;;4.45;;
13048;SDS011;6591;51.446;5.404;2023-07-13T04:48:46;11.23;;;4.82;;
13048;SDS011;6591;51.446;5.404;2023-07-13T04:51:16;10.30;;;4.75;;
13048;SDS011;6591;51.446;5.404;2023-07-13T04:53:43;8.20;;;4.97;;
13048;SDS011;6591;51.446;5.404;2023-07-13T04:56:10;11.80;;;5.32;;
13048;SDS011;6591;51.446;5.404;2023-07-13T04:58:38;11.77;;;5.10;;
13048;SDS011;6591;51.446;5.404;2023-07-13T05:01:12;11.52;;;4.70;;
13048;SDS011;6591;51.446;5.404;2023-07-13T05:04:07;9.07;;;5.22;;
13048;SDS011;6591;51.446;5.404;2023-07-13T05:06:34;8.07;;;4.78;;
13048;SDS011;6591;51.446;5.404;2023-07-13T05:09:01;11.18;;;5.13;;
13048;SDS011;6591;51.446;5.404;2023-07-13T05:11:29;11.55;;;5.45;;
13048;SDS011;6591;51.446;5.404;2023-07-13T05:13:56;8.38;;;4.93;;
13048;SDS011;6591;51.446;5.404;2023-07-13T05:16:24;12.32;;;5.35;;
13048;SDS011;6591;51.446;5.404;2023-07-13T05:18:51;10.38;;;5.38;;
13048;SDS011;6591;51.446;5.404;2023-07-13T05:21:19;12.75;;;5.45;;
13048;SDS011;6591;51.446;5.404;2023-07-13T05:23:46;9.00;;;5.22;;
13048;SDS011;6591;51.446;5.404;2023-07-13T05:26:13;9.43;;;4.57;;
13048;SDS011;6591;51.446;5.404;2023-07-13T05:28:40;10.15;;;5.40;;
13048;SDS011;6591;51.446;5.404;2023-07-13T05:31:09;12.75;;;5.55;;
13048;SDS011;6591;51.446;5.404;2023-07-13T05:33:37;11.68;;;5.00;;
13048;SDS011;6591;51.446;5.404;2023-07-13T05:36:06;9.73;;;4.70;;
13048;SDS011;6591;51.446;5.404;2023-07-13T05:38:33;9.40;;;4.80;;
13048;SDS011;6591;51.446;5.404;2023-07-13T05:41:01;11.63;;;5.47;;
13048;SDS011;6591;51.446;5.404;2023-07-13T05:43:31;9.40;;;4.80;;
13048;SDS011;6591;51.446;5.404;2023-07-13T05:45:59;12.18;;;5.38;;
13048;SDS011;6591;51.446;5.404;2023-07-13T05:48:26;9.88;;;5.40;;
13048;SDS011;6591;51.446;5.404;2023-07-13T05:50:53;9.27;;;5.32;;
13048;SDS011;6591;51.446;5.404;2023-07-13T05:53:20;10.07;;;4.97;;
13048;SDS011;6591;51.446;5.404;2023-07-13T05:55:48;11.70;;;5.57;;
13048;SDS011;6591;51.446;5.404;2023-07-13T05:58:17;14.13;;;6.03;;
13048;SDS011;6591;51.446;5.404;2023-07-13T06:00:45;11.02;;;5.68;;
13048;SDS011;6591;51.446;5.404;2023-07-13T06:03:14;8.75;;;5.35;;
13048;SDS011;6591;51.446;5.404;2023-07-13T06:05:42;11.02;;;5.88;;
13048;SDS011;6591;51.446;5.404;2023-07-13T06:08:09;11.32;;;6.18;;
13048;SDS011;6591;51.446;5.404;2023-07-13T06:10:37;8.85;;;5.47;;
13048;SDS011;6591;51.446;5.404;2023-07-13T06:13:06;11.30;;;6.53;;
13048;SDS011;6591;51.446;5.404;2023-07-13T06:15:33;10.48;;;6.13;;
13048;SDS011;6591;51.446;5.404;2023-07-13T06:18:01;8.43;;;5.28;;
13048;SDS011;6591;51.446;5.404;2023-07-13T06:20:28;9.25;;;4.90;;
13048;SDS011;6591;51.446;5.404;2023-07-13T06:22:57;9.20;;;5.47;;
13048;SDS011;6591;51.446;5.404;2023-07-13T06:25:25;9.25;;;5.82;;
13048;SDS011;6591;51.446;5.404;2023-07-13T06:27:53;13.48;;;6.50;;
13048;SDS011;6591;51.446;5.404;2023-07-13T06:30:20;11.93;;;5.97;;
13048;SDS011;6591;51.446;5.404;2023-07-13T06:32:47;8.75;;;5.10;;
13048;SDS011;6591;51.446;5.404;2023-07-13T06:35:15;12.23;;;5.63;;
13048;SDS011;6591;51.446;5.404;2023-07-13T06:37:43;8.93;;;5.65;;
13048;SDS011;6591;51.446;5.404;2023-07-13T06:40:10;12.73;;;5.53;;
13048;SDS011;6591;51.446;5.404;2023-07-13T06:42:38;9.82;;;5.82;;
13048;SDS011;6591;51.446;5.404;2023-07-13T06:45:05;11.88;;;5.88;;
13048;SDS011;6591;51.446;5.404;2023-07-13T06:47:33;10.13;;;5.28;;
13048;SDS011;6591;51.446;5.404;2023-07-13T06:50:02;13.55;;;5.40;;
13048;SDS011;6591;51.446;5.404;2023-07-13T06:52:29;13.27;;;5.47;;
13048;SDS011;6591;51.446;5.404;2023-07-13T06:54:56;10.50;;;5.88;;
13048;SDS011;6591;51.446;5.404;2023-07-13T06:57:24;10.32;;;5.18;;
13048;SDS011;6591;51.446;5.404;2023-07-13T06:59:51;11.38;;;5.13;;
13048;SDS011;6591;51.446;5.404;2023-07-13T07:02:18;9.82;;;5.10;;
13048;SDS011;6591;51.446;5.404;2023-07-13T07:04:45;12.20;;;5.57;;
13048;SDS011;6591;51.446;5.404;2023-07-13T07:07:12;9.43;;;5.53;;
13048;SDS011;6591;51.446;5.404;2023-07-13T07:09:39;8.65;;;5.63;;
13048;SDS011;6591;51.446;5.404;2023-07-13T07:12:06;8.65;;;5.10;;
13048;SDS011;6591;51.446;5.404;2023-07-13T07:14:34;9.23;;;4.88;;
13048;SDS011;6591;51.446;5.404;2023-07-13T07:17:01;8.77;;;4.72;;
13048;SDS011;6591;51.446;5.404;2023-07-13T07:19:29;9.23;;;4.95;;
13048;SDS011;6591;51.446;5.404;2023-07-13T07:21:58;11.18;;;5.47;;
13048;SDS011;6591;51.446;5.404;2023-07-13T07:24:25;8.85;;;4.93;;
13048;SDS011;6591;51.446;5.404;2023-07-13T07:26:53;8.10;;;5.35;;
13048;SDS011;6591;51.446;5.404;2023-07-13T07:29:23;8.52;;;4.88;;
13048;SDS011;6591;51.446;5.404;2023-07-13T07:31:55;10.02;;;4.85;;
13048;SDS011;6591;51.446;5.404;2023-07-13T07:34:26;8.13;;;4.47;;
13048;SDS011;6591;51.446;5.404;2023-07-13T07:36:53;8.88;;;4.60;;
13048;SDS011;6591;51.446;5.404;2023-07-13T07:39:27;7.53;;;4.13;;
13048;SDS011;6591;51.446;5.404;2023-07-13T07:41:57;8.35;;;4.57;;
13048;SDS011;6591;51.446;5.404;2023-07-13T07:44:27;8.88;;;4.68;;
13048;SDS011;6591;51.446;5.404;2023-07-13T07:46:58;8.07;;;4.65;;
13048;SDS011;6591;51.446;5.404;2023-07-13T07:49:25;7.70;;;4.05;;
13048;SDS011;6591;51.446;5.404;2023-07-13T07:51:53;8.65;;;4.18;;
13048;SDS011;6591;51.446;5.404;2023-07-13T07:54:20;8.68;;;4.25;;
13048;SDS011;6591;51.446;5.404;2023-07-13T07:57:08;7.13;;;3.97;;
13048;SDS011;6591;51.446;5.404;2023-07-13T07:59:40;6.38;;;3.85;;
13048;SDS011;6591;51.446;5.404;2023-07-13T08:02:13;6.40;;;3.72;;
13048;SDS011;6591;51.446;5.404;2023-07-13T08:05:00;13.38;;;3.50;;
13048;SDS011;6591;51.446;5.404;2023-07-13T08:07:32;5.93;;;3.70;;
13048;SDS011;6591;51.446;5.404;2023-07-13T08:10:00;8.32;;;3.47;;
13048;SDS011;6591;51.446;5.404;2023-07-13T08:12:27;9.23;;;3.40;;
13048;SDS011;6591;51.446;5.404;2023-07-13T08:14:57;5.82;;;3.08;;
13048;SDS011;6591;51.446;5.404;2023-07-13T08:17:28;5.45;;;3.58;;
13048;SDS011;6591;51.446;5.404;2023-07-13T08:19:55;7.07;;;3.50;;
13048;SDS011;6591;51.446;5.404;2023-07-13T08:22:22;8.60;;;3.88;;
13048;SDS011;6591;51.446;5.404;2023-07-13T08:24:50;5.50;;;3.30;;
13048;SDS011;6591;51.446;5.404;2023-07-13T08:27:23;7.00;;;3.25;;
13048;SDS011;6591;51.446;5.404;2023-07-13T08:29:54;8.95;;;3.25;;
13048;SDS011;6591;51.446;5.404;2023-07-13T08:32:22;5.10;;;3.25;;
13048;SDS011;6591;51.446;5.404;2023-07-13T08:34:50;10.45;;;3.08;;
13048;SDS011;6591;51.446;5.404;2023-07-13T08:37:18;6.13;;;3.53;;
13048;SDS011;6591;51.446;5.404;2023-07-13T08:39:46;9.10;;;3.05;;
13048;SDS011;6591;51.446;5.404;2023-07-13T08:42:16;7.50;;;3.00;;
13048;SDS011;6591;51.446;5.404;2023-07-13T08:45:24;4.53;;;2.72;;
13048;SDS011;6591;51.446;5.404;2023-07-13T08:48:11;5.82;;;2.90;;
13048;SDS011;6591;51.446;5.404;2023-07-13T08:53:33;12.07;;;2.85;;
13048;SDS011;6591;51.446;5.404;2023-07-13T08:56:09;4.13;;;2.40;;
13048;SDS011;6591;51.446;5.404;2023-07-13T08:58:46;4.80;;;2.40;;
13048;SDS011;6591;51.446;5.404;2023-07-13T09:04:32;3.67;;;2.50;;
13048;SDS011;6591;51.446;5.404;2023-07-13T09:10:08;5.15;;;2.60;;
13048;SDS011;6591;51.446;5.404;2023-07-13T09:16:20;5.53;;;2.70;;
13048;SDS011;6591;51.446;5.404;2023-07-13T09:18:50;9.63;;;2.95;;
13048;SDS011;6591;51.446;5.404;2023-07-13T09:21:32;6.65;;;2.50;;
13048;SDS011;6591;51.446;5.404;2023-07-13T09:27:17;4.57;;;2.50;;
13048;SDS011;6591;51.446;5.404;2023-07-13T09:30:02;5.85;;;2.30;;
13048;SDS011;6591;51.446;5.404;2023-07-13T09:32:45;3.50;;;2.20;;
13048;SDS011;6591;51.446;5.404;2023-07-13T09:35:20;6.13;;;2.80;;
13048;SDS011;6591;51.446;5.404;2023-07-13T09:37:59;3.70;;;2.15;;
13048;SDS011;6591;51.446;5.404;2023-07-13T09:41:08;5.60;;;2.20;;
13048;SDS011;6591;51.446;5.404;2023-07-13T09:46:57;4.20;;;1.75;;
13048;SDS011;6591;51.446;5.404;2023-07-13T09:49:26;5.93;;;2.10;;
13048;SDS011;6591;51.446;5.404;2023-07-13T09:52:00;5.28;;;2.30;;
13048;SDS011;6591;51.446;5.404;2023-07-13T09:54:32;3.38;;;2.03;;
13048;SDS011;6591;51.446;5.404;2023-07-13T09:57:03;4.75;;;2.05;;
13048;SDS011;6591;51.446;5.404;2023-07-13T09:59:42;4.30;;;2.22;;
13048;SDS011;6591;51.446;5.404;2023-07-13T10:05:10;2.90;;;1.90;;
13048;SDS011;6591;51.446;5.404;2023-07-13T10:07:45;4.55;;;2.10;;
13048;SDS011;6591;51.446;5.404;2023-07-13T10:10:17;5.35;;;2.30;;
13048;SDS011;6591;51.446;5.404;2023-07-13T10:12:49;3.25;;;2.22;;
13048;SDS011;6591;51.446;5.404;2023-07-13T10:15:19;5.57;;;1.83;;
13048;SDS011;6591;51.446;5.404;2023-07-13T10:17:53;6.60;;;2.25;;
13048;SDS011;6591;51.446;5.404;2023-07-13T10:20:24;4.88;;;2.20;;
13048;SDS011;6591;51.446;5.404;2023-07-13T10:23:04;2.72;;;1.60;;
13048;SDS011;6591;51.446;5.404;2023-07-13T10:25:42;4.63;;;2.15;;
13048;SDS011;6591;51.446;5.404;2023-07-13T10:28:22;4.50;;;1.83;;
13048;SDS011;6591;51.446;5.404;2023-07-13T10:30:53;4.32;;;1.90;;
13048;SDS011;6591;51.446;5.404;2023-07-13T10:33:25;5.22;;;1.90;;
13048;SDS011;6591;51.446;5.404;2023-07-13T10:36:12;4.03;;;1.98;;
13048;SDS011;6591;51.446;5.404;2023-07-13T10:39:24;3.53;;;1.67;;
13048;SDS011;6591;51.446;5.404;2023-07-13T10:42:00;4.68;;;2.10;;
13048;SDS011;6591;51.446;5.404;2023-07-13T10:44:36;2.58;;;1.50;;
13048;SDS011;6591;51.446;5.404;2023-07-13T10:47:14;3.05;;;1.70;;
13048;SDS011;6591;51.446;5.404;2023-07-13T10:49:44;3.08;;;1.90;;
13048;SDS011;6591;51.446;5.404;2023-07-13T10:55:38;5.50;;;1.92;;
13048;SDS011;6591;51.446;5.404;2023-07-13T10:58:34;3.92;;;2.20;;
13048;SDS011;6591;51.446;5.404;2023-07-13T11:03:36;6.13;;;2.13;;
13048;SDS011;6591;51.446;5.404;2023-07-13T11:06:17;3.78;;;2.38;;
13048;SDS011;6591;51.446;5.404;2023-07-13T11:08:52;3.88;;;2.38;;
13048;SDS011;6591;51.446;5.404;2023-07-13T11:14:03;3.58;;;2.20;;
13048;SDS011;6591;51.446;5.404;2023-07-13T11:22:51;3.83;;;1.98;;
13048;SDS011;6591;51.446;5.404;2023-07-13T11:25:35;4.18;;;2.00;;
13048;SDS011;6591;51.446;5.404;2023-07-13T11:28:14;4.13;;;2.22;;
13048;SDS011;6591;51.446;5.404;2023-07-13T11:36:03;4.28;;;2.08;;
13048;SDS011;6591;51.446;5.404;2023-07-13T11:38:51;3.58;;;1.98;;
13048;SDS011;6591;51.446;5.404;2023-07-13T11:41:22;5.95;;;2.20;;
13048;SDS011;6591;51.446;5.404;2023-07-13T11:44:13;3.50;;;1.80;;
13048;SDS011;6591;51.446;5.404;2023-07-13T11:46:46;6.82;;;1.85;;
13048;SDS011;6591;51.446;5.404;2023-07-13T11:49:29;3.38;;;1.90;;
13048;SDS011;6591;51.446;5.404;2023-07-13T11:51:59;4.63;;;2.17;;
13048;SDS011;6591;51.446;5.404;2023-07-13T11:54:29;4.28;;;1.85;;
13048;SDS011;6591;51.446;5.404;2023-07-13T11:57:30;3.15;;;1.67;;
13048;SDS011;6591;51.446;5.404;2023-07-13T12:02:48;6.10;;;2.30;;
13048;SDS011;6591;51.446;5.404;2023-07-13T12:05:20;6.75;;;2.03;;
13048;SDS011;6591;51.446;5.404;2023-07-13T12:07:51;4.38;;;2.35;;
13048;SDS011;6591;51.446;5.404;2023-07-13T12:12:55;3.53;;;2.20;;
13048;SDS011;6591;51.446;5.404;2023-07-13T12:15:34;2.97;;;2.22;;
13048;SDS011;6591;51.446;5.404;2023-07-13T12:18:13;4.70;;;2.70;;
13048;SDS011;6591;51.446;5.404;2023-07-13T12:20:50;4.47;;;2.50;;
13048;SDS011;6591;51.446;5.404;2023-07-13T12:25:54;4.03;;;2.28;;
13048;SDS011;6591;51.446;5.404;2023-07-13T12:28:33;3.58;;;2.30;;
13048;SDS011;6591;51.446;5.404;2023-07-13T12:31:23;5.70;;;2.17;;
13048;SDS011;6591;51.446;5.404;2023-07-13T12:33:56;3.40;;;1.80;;
13048;SDS011;6591;51.446;5.404;2023-07-13T12:36:26;4.25;;;2.20;;
13048;SDS011;6591;51.446;5.404;2023-07-13T12:39:00;4.22;;;1.90;;
13048;SDS011;6591;51.446;5.404;2023-07-13T12:41:39;3.72;;;1.98;;
13048;SDS011;6591;51.446;5.404;2023-07-13T12:44:11;3.10;;;2.13;;
13048;SDS011;6591;51.446;5.404;2023-07-13T12:46:59;3.78;;;2.10;;
13048;SDS011;6591;51.446;5.404;2023-07-13T12:49:48;2.70;;;1.85;;
13048;SDS011;6591;51.446;5.404;2023-07-13T12:52:21;3.42;;;1.75;;
13048;SDS011;6591;51.446;5.404;2023-07-13T12:55:04;3.90;;;1.83;;
13048;SDS011;6591;51.446;5.404;2023-07-13T12:57:41;2.78;;;1.60;;
13048;SDS011;6591;51.446;5.404;2023-07-13T13:00:32;3.25;;;1.70;;
13048;SDS011;6591;51.446;5.404;2023-07-13T13:03:29;2.70;;;1.60;;
13048;SDS011;6591;51.446;5.404;2023-07-13T13:08:45;3.95;;;1.60;;
13048;SDS011;6591;51.446;5.404;2023-07-13T13:11:18;2.45;;;1.60;;
13048;SDS011;6591;51.446;5.404;2023-07-13T13:13:47;2.17;;;1.70;;
13048;SDS011;6591;51.446;5.404;2023-07-13T13:16:17;3.88;;;1.85;;
13048;SDS011;6591;51.446;5.404;2023-07-13T13:18:51;5.13;;;1.92;;
13048;SDS011;6591;51.446;5.404;2023-07-13T13:21:23;3.97;;;1.75;;
13048;SDS011;6591;51.446;5.404;2023-07-13T13:23:51;4.32;;;2.50;;
13048;SDS011;6591;51.446;5.404;2023-07-13T13:26:21;3.70;;;2.03;;
13048;SDS011;6591;51.446;5.404;2023-07-13T13:28:49;2.72;;;1.90;;
13048;SDS011;6591;51.446;5.404;2023-07-13T13:31:16;3.83;;;2.40;;
13048;SDS011;6591;51.446;5.404;2023-07-13T13:33:44;6.07;;;2.40;;
13048;SDS011;6591;51.446;5.404;2023-07-13T13:36:16;5.32;;;2.30;;
13048;SDS011;6591;51.446;5.404;2023-07-13T13:38:46;3.55;;;2.40;;
13048;SDS011;6591;51.446;5.404;2023-07-13T13:41:17;2.47;;;1.90;;
13048;SDS011;6591;51.446;5.404;2023-07-13T13:43:44;2.63;;;2.10;;
13048;SDS011;6591;51.446;5.404;2023-07-13T13:46:13;2.42;;;1.92;;
13048;SDS011;6591;51.446;5.404;2023-07-13T13:48:56;2.83;;;2.00;;
13048;SDS011;6591;51.446;5.404;2023-07-13T13:51:28;3.33;;;2.10;;
13048;SDS011;6591;51.446;5.404;2023-07-13T13:53:56;4.35;;;2.08;;
13048;SDS011;6591;51.446;5.404;2023-07-13T13:56:26;2.60;;;1.88;;
13048;SDS011;6591;51.446;5.404;2023-07-13T13:58:54;4.28;;;2.25;;
13048;SDS011;6591;51.446;5.404;2023-07-13T14:01:22;2.33;;;2.03;;
13048;SDS011;6591;51.446;5.404;2023-07-13T14:03:51;2.60;;;2.00;;
13048;SDS011;6591;51.446;5.404;2023-07-13T14:06:18;4.30;;;2.30;;
13048;SDS011;6591;51.446;5.404;2023-07-13T14:08:45;2.30;;;1.90;;
13048;SDS011;6591;51.446;5.404;2023-07-13T14:11:14;2.47;;;2.20;;
13048;SDS011;6591;51.446;5.404;2023-07-13T14:13:50;2.58;;;1.95;;
13048;SDS011;6591;51.446;5.404;2023-07-13T14:16:26;2.63;;;1.90;;
13048;SDS011;6591;51.446;5.404;2023-07-13T14:18:58;3.70;;;2.10;;
13048;SDS011;6591;51.446;5.404;2023-07-13T14:21:27;3.42;;;2.10;;
13048;SDS011;6591;51.446;5.404;2023-07-13T14:23:56;2.55;;;2.05;;
13048;SDS011;6591;51.446;5.404;2023-07-13T14:26:23;2.42;;;1.92;;
13048;SDS011;6591;51.446;5.404;2023-07-13T14:28:55;3.33;;;1.60;;
13048;SDS011;6591;51.446;5.404;2023-07-13T14:31:25;2.10;;;1.60;;
13048;SDS011;6591;51.446;5.404;2023-07-13T14:33:56;3.50;;;1.75;;
13048;SDS011;6591;51.446;5.404;2023-07-13T14:36:29;2.25;;;1.67;;
13048;SDS011;6591;51.446;5.404;2023-07-13T14:39:00;2.38;;;1.42;;
13048;SDS011;6591;51.446;5.404;2023-07-13T14:41:39;1.65;;;1.50;;
13048;SDS011;6591;51.446;5.404;2023-07-13T14:44:12;2.33;;;1.52;;
13048;SDS011;6591;51.446;5.404;2023-07-13T14:46:43;2.28;;;1.40;;
13048;SDS011;6591;51.446;5.404;2023-07-13T14:52:17;3.15;;;1.48;;
13048;SDS011;6591;51.446;5.404;2023-07-13T14:54:50;3.33;;;1.60;;
13048;SDS011;6591;51.446;5.404;2023-07-13T14:57:18;3.13;;;1.65;;
13048;SDS011;6591;51.446;5.404;2023-07-13T14:59:47;2.10;;;1.50;;
13048;SDS011;6591;51.446;5.404;2023-07-13T15:04:58;1.63;;;1.17;;
13048;SDS011;6591;51.446;5.404;2023-07-13T15:07:25;1.58;;;1.30;;
13048;SDS011;6591;51.446;5.404;2023-07-13T15:09:53;2.05;;;1.50;;
13048;SDS011;6591;51.446;5.404;2023-07-13T15:12:21;1.85;;;1.30;;
13048;SDS011;6591;51.446;5.404;2023-07-13T15:14:48;2.83;;;1.50;;
13048;SDS011;6591;51.446;5.404;2023-07-13T15:17:23;3.42;;;1.60;;
13048;SDS011;6591;51.446;5.404;2023-07-13T15:19:58;2.17;;;1.38;;
13048;SDS011;6591;51.446;5.404;2023-07-13T15:22:26;1.85;;;1.35;;
13048;SDS011;6591;51.446;5.404;2023-07-13T15:24:53;1.70;;;1.35;;
13048;SDS011;6591;51.446;5.404;2023-07-13T15:27:25;2.63;;;1.52;;
13048;SDS011;6591;51.446;5.404;2023-07-13T15:29:53;3.35;;;1.60;;
13048;SDS011;6591;51.446;5.404;2023-07-13T15:32:20;3.58;;;2.00;;
13048;SDS011;6591;51.446;5.404;2023-07-13T15:34:48;2.35;;;1.75;;
13048;SDS011;6591;51.446;5.404;2023-07-13T15:37:15;2.60;;;1.80;;
13048;SDS011;6591;51.446;5.404;2023-07-13T15:39:44;2.90;;;1.88;;
13048;SDS011;6591;51.446;5.404;2023-07-13T15:42:13;2.67;;;1.90;;
13048;SDS011;6591;51.446;5.404;2023-07-13T15:44:43;3.00;;;1.67;;
13048;SDS011;6591;51.446;5.404;2023-07-13T15:47:12;3.60;;;1.70;;
13048;SDS011;6591;51.446;5.404;2023-07-13T15:49:49;2.45;;;1.55;;
13048;SDS011;6591;51.446;5.404;2023-07-13T15:52:22;2.45;;;1.55;;
13048;SDS011;6591;51.446;5.404;2023-07-13T15:55:14;2.65;;;1.80;;
13048;SDS011;6591;51.446;5.404;2023-07-13T15:57:43;2.45;;;1.60;;
13048;SDS011;6591;51.446;5.404;2023-07-13T16:00:25;1.70;;;1.60;;
13048;SDS011;6591;51.446;5.404;2023-07-13T16:02:59;1.67;;;1.58;;
13048;SDS011;6591;51.446;5.404;2023-07-13T16:05:26;2.47;;;1.65;;
13048;SDS011;6591;51.446;5.404;2023-07-13T16:07:54;3.05;;;1.83;;
13048;SDS011;6591;51.446;5.404;2023-07-13T16:10:36;2.38;;;1.70;;
13048;SDS011;6591;51.446;5.404;2023-07-13T16:13:16;2.15;;;1.73;;
13048;SDS011;6591;51.446;5.404;2023-07-13T16:15:48;2.47;;;1.45;;
13048;SDS011;6591;51.446;5.404;2023-07-13T16:18:15;2.05;;;1.70;;
13048;SDS011;6591;51.446;5.404;2023-07-13T16:20:45;2.38;;;1.88;;
13048;SDS011;6591;51.446;5.404;2023-07-13T16:23:16;4.10;;;2.17;;
13048;SDS011;6591;51.446;5.404;2023-07-13T16:25:44;3.20;;;2.20;;
13048;SDS011;6591;51.446;5.404;2023-07-13T16:28:12;2.25;;;1.85;;
13048;SDS011;6591;51.446;5.404;2023-07-13T16:30:40;3.45;;;2.00;;
13048;SDS011;6591;51.446;5.404;2023-07-13T16:33:09;4.88;;;1.90;;
13048;SDS011;6591;51.446;5.404;2023-07-13T16:35:43;2.70;;;1.92;;
13048;SDS011;6591;51.446;5.404;2023-07-13T16:38:16;2.10;;;1.83;;
13048;SDS011;6591;51.446;5.404;2023-07-13T16:40:46;3.35;;;2.20;;
13048;SDS011;6591;51.446;5.404;2023-07-13T16:43:16;2.60;;;1.90;;
13048;SDS011;6591;51.446;5.404;2023-07-13T16:45:49;2.92;;;1.90;;
13048;SDS011;6591;51.446;5.404;2023-07-13T16:48:19;2.17;;;1.98;;
13048;SDS011;6591;51.446;5.404;2023-07-13T16:51:02;2.75;;;2.05;;
13048;SDS011;6591;51.446;5.404;2023-07-13T16:53:42;2.35;;;1.90;;
13048;SDS011;6591;51.446;5.404;2023-07-13T16:56:16;4.10;;;2.30;;
13048;SDS011;6591;51.446;5.404;2023-07-13T16:58:46;3.17;;;2.30;;
13048;SDS011;6591;51.446;5.404;2023-07-13T17:01:13;2.67;;;2.22;;
13048;SDS011;6591;51.446;5.404;2023-07-13T17:03:42;5.20;;;2.40;;
13048;SDS011;6591;51.446;5.404;2023-07-13T17:06:23;3.13;;;2.30;;
13048;SDS011;6591;51.446;5.404;2023-07-13T17:08:52;2.95;;;2.13;;
13048;SDS011;6591;51.446;5.404;2023-07-13T17:11:22;2.83;;;2.15;;
13048;SDS011;6591;51.446;5.404;2023-07-13T17:13:52;3.08;;;2.28;;
13048;SDS011;6591;51.446;5.404;2023-07-13T17:16:20;3.63;;;2.10;;
13048;SDS011;6591;51.446;5.404;2023-07-13T17:18:51;3.38;;;2.35;;
13048;SDS011;6591;51.446;5.404;2023-07-13T17:21:18;2.10;;;1.90;;
13048;SDS011;6591;51.446;5.404;2023-07-13T17:23:47;5.97;;;2.13;;
13048;SDS011;6591;51.446;5.404;2023-07-13T17:26:18;1.85;;;1.73;;
13048;SDS011;6591;51.446;5.404;2023-07-13T17:28:46;2.10;;;1.88;;
13048;SDS011;6591;51.446;5.404;2023-07-13T17:31:18;2.88;;;2.20;;
13048;SDS011;6591;51.446;5.404;2023-07-13T17:33:57;4.07;;;2.00;;
13048;SDS011;6591;51.446;5.404;2023-07-13T17:36:39;3.55;;;1.75;;
13048;SDS011;6591;51.446;5.404;2023-07-13T17:39:25;3.38;;;1.95;;
13048;SDS011;6591;51.446;5.404;2023-07-13T17:41:53;4.72;;;1.90;;
13048;SDS011;6591;51.446;5.404;2023-07-13T17:44:21;2.60;;;1.60;;
13048;SDS011;6591;51.446;5.404;2023-07-13T17:46:50;2.67;;;1.80;;
13048;SDS011;6591;51.446;5.404;2023-07-13T17:49:19;3.03;;;1.77;;
13048;SDS011;6591;51.446;5.404;2023-07-13T17:51:56;2.20;;;1.80;;
13048;SDS011;6591;51.446;5.404;2023-07-13T17:54:33;2.38;;;1.80;;
13048;SDS011;6591;51.446;5.404;2023-07-13T17:57:01;2.40;;;1.77;;
13048;SDS011;6591;51.446;5.404;2023-07-13T17:59:29;2.00;;;1.75;;
13048;SDS011;6591;51.446;5.404;2023-07-13T18:01:58;2.38;;;1.83;;
13048;SDS011;6591;51.446;5.404;2023-07-13T18:04:26;3.10;;;1.73;;
13048;SDS011;6591;51.446;5.404;2023-07-13T18:06:54;2.45;;;1.90;;
13048;SDS011;6591;51.446;5.404;2023-07-13T18:09:32;1.88;;;1.65;;
13048;SDS011;6591;51.446;5.404;2023-07-13T18:12:00;2.03;;;1.80;;
13048;SDS011;6591;51.446;5.404;2023-07-13T18:14:28;2.40;;;1.65;;
13048;SDS011;6591;51.446;5.404;2023-07-13T18:16:57;2.15;;;1.90;;
13048;SDS011;6591;51.446;5.404;2023-07-13T18:19:35;3.38;;;2.03;;
13048;SDS011;6591;51.446;5.404;2023-07-13T18:22:14;2.00;;;1.40;;
13048;SDS011;6591;51.446;5.404;2023-07-13T18:24:45;3.40;;;1.70;;
13048;SDS011;6591;51.446;5.404;2023-07-13T18:27:13;2.58;;;1.90;;
13048;SDS011;6591;51.446;5.404;2023-07-13T18:29:44;1.85;;;1.70;;
13048;SDS011;6591;51.446;5.404;2023-07-13T18:32:15;3.00;;;1.88;;
13048;SDS011;6591;51.446;5.404;2023-07-13T18:34:49;2.50;;;1.90;;
13048;SDS011;6591;51.446;5.404;2023-07-13T18:37:19;2.35;;;1.85;;
13048;SDS011;6591;51.446;5.404;2023-07-13T18:39:49;1.77;;;1.63;;
13048;SDS011;6591;51.446;5.404;2023-07-13T18:42:21;2.78;;;1.92;;
13048;SDS011;6591;51.446;5.404;2023-07-13T18:44:51;3.13;;;1.95;;
13048;SDS011;6591;51.446;5.404;2023-07-13T18:47:19;2.40;;;1.90;;
13048;SDS011;6591;51.446;5.404;2023-07-13T18:49:52;2.30;;;1.88;;
13048;SDS011;6591;51.446;5.404;2023-07-13T18:52:28;2.50;;;2.00;;
13048;SDS011;6591;51.446;5.404;2023-07-13T18:54:58;2.85;;;1.92;;
13048;SDS011;6591;51.446;5.404;2023-07-13T18:57:37;2.78;;;2.05;;
13048;SDS011;6591;51.446;5.404;2023-07-13T19:00:05;2.08;;;1.70;;
13048;SDS011;6591;51.446;5.404;2023-07-13T19:02:33;2.33;;;1.83;;
13048;SDS011;6591;51.446;5.404;2023-07-13T19:05:05;3.40;;;2.50;;
13048;SDS011;6591;51.446;5.404;2023-07-13T19:07:44;3.63;;;2.00;;
13048;SDS011;6591;51.446;5.404;2023-07-13T19:10:12;2.80;;;1.98;;
13048;SDS011;6591;51.446;5.404;2023-07-13T19:12:46;2.97;;;1.98;;
13048;SDS011;6591;51.446;5.404;2023-07-13T19:15:22;2.25;;;1.95;;
13048;SDS011;6591;51.446;5.404;2023-07-13T19:18:00;2.28;;;1.77;;
13048;SDS011;6591;51.446;5.404;2023-07-13T19:20:42;2.63;;;1.85;;
13048;SDS011;6591;51.446;5.404;2023-07-13T19:23:29;2.58;;;2.22;;
13048;SDS011;6591;51.446;5.404;2023-07-13T19:26:21;2.78;;;2.03;;
13048;SDS011;6591;51.446;5.404;2023-07-13T19:28:55;3.03;;;2.22;;
13048;SDS011;6591;51.446;5.404;2023-07-13T19:31:33;4.05;;;2.47;;
13048;SDS011;6591;51.446;5.404;2023-07-13T19:36:35;2.53;;;2.10;;
13048;SDS011;6591;51.446;5.404;2023-07-13T19:39:08;2.40;;;2.20;;
13048;SDS011;6591;51.446;5.404;2023-07-13T19:42:05;3.25;;;2.75;;
13048;SDS011;6591;51.446;5.404;2023-07-13T19:44:47;4.10;;;2.67;;
13048;SDS011;6591;51.446;5.404;2023-07-13T19:47:16;3.13;;;2.65;;
13048;SDS011;6591;51.446;5.404;2023-07-13T19:49:45;4.25;;;2.47;;
13048;SDS011;6591;51.446;5.404;2023-07-13T19:52:22;3.70;;;2.70;;
13048;SDS011;6591;51.446;5.404;2023-07-13T19:54:56;3.85;;;2.50;;
13048;SDS011;6591;51.446;5.404;2023-07-13T19:57:25;5.45;;;2.42;;
13048;SDS011;6591;51.446;5.404;2023-07-13T20:00:02;5.35;;;3.00;;
13048;SDS011;6591;51.446;5.404;2023-07-13T20:02:48;2.75;;;2.40;;
13048;SDS011;6591;51.446;5.404;2023-07-13T20:05:16;3.10;;;2.40;;
13048;SDS011;6591;51.446;5.404;2023-07-13T20:08:10;5.00;;;2.70;;
13048;SDS011;6591;51.446;5.404;2023-07-13T20:10:47;4.38;;;3.03;;
13048;SDS011;6591;51.446;5.404;2023-07-13T20:13:17;4.70;;;2.55;;
13048;SDS011;6591;51.446;5.404;2023-07-13T20:15:49;3.30;;;2.60;;
13048;SDS011;6591;51.446;5.404;2023-07-13T20:18:16;4.68;;;3.05;;
13048;SDS011;6591;51.446;5.404;2023-07-13T20:20:45;4.40;;;3.05;;
13048;SDS011;6591;51.446;5.404;2023-07-13T20:23:16;3.65;;;3.00;;
13048;SDS011;6591;51.446;5.404;2023-07-13T20:25:48;3.03;;;2.60;;
13048;SDS011;6591;51.446;5.404;2023-07-13T20:28:17;3.97;;;3.00;;
13048;SDS011;6591;51.446;5.404;2023-07-13T20:30:48;4.57;;;2.83;;
13048;SDS011;6591;51.446;5.404;2023-07-13T20:33:18;2.95;;;2.65;;
13048;SDS011;6591;51.446;5.404;2023-07-13T20:35:53;3.20;;;2.90;;
13048;SDS011;6591;51.446;5.404;2023-07-13T20:38:25;4.28;;;2.95;;
13048;SDS011;6591;51.446;5.404;2023-07-13T20:40:52;4.90;;;3.15;;
13048;SDS011;6591;51.446;5.404;2023-07-13T20:43:19;4.35;;;3.17;;